sensor_id;sensor_type;location;lat;lon;timestamp;temperature;humidity
25436;DHT22;13363;52.772;-3.890;2022-08-04T00:00:34;17.70;99.90
25436;DHT22;13363;52.772;-3.890;2022-08-04T00:03:13;17.60;99.90
25436;DHT22;13363;52.772;-3.890;2022-08-04T00:05:51;17.50;99.90
25436;DHT22;13363;52.772;-3.890;2022-08-04T00:08:44;17.40;99.90
25436;DHT22;13363;52.772;-3.890;2022-08-04T00:11:14;17.40;99.90
25436;DHT22;13363;52.772;-3.890;2022-08-04T00:14:10;17.50;99.90
25436;DHT22;13363;52.772;-3.890;2022-08-04T00:16:37;17.50;99.90
25436;DHT22;13363;52.772;-3.890;2022-08-04T00:19:15;17.40;99.90
25436;DHT22;13363;52.772;-3.890;2022-08-04T00:21:46;17.50;99.90
25436;DHT22;13363;52.772;-3.890;2022-08-04T00:24:13;17.50;99.90
25436;DHT22;13363;52.772;-3.890;2022-08-04T00:26:40;17.40;99.90
25436;DHT22;13363;52.772;-3.890;2022-08-04T00:29:07;17.40;99.90
25436;DHT22;13363;52.772;-3.890;2022-08-04T00:31:34;17.40;99.90
25436;DHT22;13363;52.772;-3.890;2022-08-04T00:34:01;17.40;99.90
25436;DHT22;13363;52.772;-3.890;2022-08-04T00:36:28;17.40;99.90
25436;DHT22;13363;52.772;-3.890;2022-08-04T00:38:54;17.40;99.90
25436;DHT22;13363;52.772;-3.890;2022-08-04T00:41:52;17.40;99.90
25436;DHT22;13363;52.772;-3.890;2022-08-04T00:55:43;17.30;99.90
25436;DHT22;13363;52.772;-3.890;2022-08-04T00:59:03;17.20;99.90
25436;DHT22;13363;52.772;-3.890;2022-08-04T01:07:43;17.00;99.90
25436;DHT22;13363;52.772;-3.890;2022-08-04T01:15:35;16.70;99.90
25436;DHT22;13363;52.772;-3.890;2022-08-04T01:18:06;16.70;99.90
25436;DHT22;13363;52.772;-3.890;2022-08-04T01:20:56;16.60;99.90
25436;DHT22;13363;52.772;-3.890;2022-08-04T01:29:06;16.50;99.90
25436;DHT22;13363;52.772;-3.890;2022-08-04T01:34:10;16.40;99.90
25436;DHT22;13363;52.772;-3.890;2022-08-04T01:36:41;16.40;99.90
25436;DHT22;13363;52.772;-3.890;2022-08-04T01:39:09;16.40;99.90
25436;DHT22;13363;52.772;-3.890;2022-08-04T01:41:55;16.40;99.90
25436;DHT22;13363;52.772;-3.890;2022-08-04T01:44:23;16.40;99.90
25436;DHT22;13363;52.772;-3.890;2022-08-04T01:46:50;16.40;99.90
25436;DHT22;13363;52.772;-3.890;2022-08-04T01:49:20;16.40;99.90
25436;DHT22;13363;52.772;-3.890;2022-08-04T01:51:49;16.40;99.90
25436;DHT22;13363;52.772;-3.890;2022-08-04T01:54:17;16.40;99.90
25436;DHT22;13363;52.772;-3.890;2022-08-04T01:56:52;16.40;99.90
25436;DHT22;13363;52.772;-3.890;2022-08-04T01:59:19;16.40;99.90
25436;DHT22;13363;52.772;-3.890;2022-08-04T02:01:46;16.40;99.90
25436;DHT22;13363;52.772;-3.890;2022-08-04T02:04:16;16.40;99.90
25436;DHT22;13363;52.772;-3.890;2022-08-04T02:06:59;16.40;99.90
25436;DHT22;13363;52.772;-3.890;2022-08-04T02:09:46;16.40;99.90
25436;DHT22;13363;52.772;-3.890;2022-08-04T02:15:30;16.30;99.90
25436;DHT22;13363;52.772;-3.890;2022-08-04T02:18:29;16.40;99.90
25436;DHT22;13363;52.772;-3.890;2022-08-04T02:21:02;16.40;99.90
25436;DHT22;13363;52.772;-3.890;2022-08-04T02:23:36;16.40;99.90
25436;DHT22;13363;52.772;-3.890;2022-08-04T02:26:04;16.40;99.90
25436;DHT22;13363;52.772;-3.890;2022-08-04T02:28:37;16.40;99.90
25436;DHT22;13363;52.772;-3.890;2022-08-04T02:33:45;16.40;99.90
25436;DHT22;13363;52.772;-3.890;2022-08-04T02:36:40;16.30;99.90
25436;DHT22;13363;52.772;-3.890;2022-08-04T02:39:10;16.30;99.90
25436;DHT22;13363;52.772;-3.890;2022-08-04T02:41:38;16.20;99.90
25436;DHT22;13363;52.772;-3.890;2022-08-04T02:44:08;16.30;99.90
25436;DHT22;13363;52.772;-3.890;2022-08-04T02:46:36;16.20;99.90
25436;DHT22;13363;52.772;-3.890;2022-08-04T02:49:07;16.20;99.90
25436;DHT22;13363;52.772;-3.890;2022-08-04T02:51:44;16.20;99.90
25436;DHT22;13363;52.772;-3.890;2022-08-04T02:54:15;16.10;99.90
25436;DHT22;13363;52.772;-3.890;2022-08-04T02:56:44;16.00;99.90
25436;DHT22;13363;52.772;-3.890;2022-08-04T02:59:11;16.00;99.90
25436;DHT22;13363;52.772;-3.890;2022-08-04T03:01:39;16.10;99.90
25436;DHT22;13363;52.772;-3.890;2022-08-04T03:04:21;16.10;99.90
25436;DHT22;13363;52.772;-3.890;2022-08-04T03:07:16;16.10;99.90
25436;DHT22;13363;52.772;-3.890;2022-08-04T03:22:05;16.10;99.90
25436;DHT22;13363;52.772;-3.890;2022-08-04T03:33:38;16.00;99.90
25436;DHT22;13363;52.772;-3.890;2022-08-04T03:42:08;15.90;99.90
25436;DHT22;13363;52.772;-3.890;2022-08-04T03:47:31;15.70;99.90
25436;DHT22;13363;52.772;-3.890;2022-08-04T04:05:11;15.30;99.90
25436;DHT22;13363;52.772;-3.890;2022-08-04T04:16:44;15.30;99.90
25436;DHT22;13363;52.772;-3.890;2022-08-04T04:28:23;15.10;99.90
25436;DHT22;13363;52.772;-3.890;2022-08-04T04:31:32;15.10;99.90
25436;DHT22;13363;52.772;-3.890;2022-08-04T04:37:16;15.10;99.90
25436;DHT22;13363;52.772;-3.890;2022-08-04T04:53:26;15.00;99.90
25436;DHT22;13363;52.772;-3.890;2022-08-04T04:56:07;15.00;99.90
25436;DHT22;13363;52.772;-3.890;2022-08-04T04:58:37;15.00;99.90
25436;DHT22;13363;52.772;-3.890;2022-08-04T05:01:22;14.90;99.90
25436;DHT22;13363;52.772;-3.890;2022-08-04T05:14:49;14.80;99.90
25436;DHT22;13363;52.772;-3.890;2022-08-04T05:17:26;14.90;99.90
25436;DHT22;13363;52.772;-3.890;2022-08-04T05:22:54;14.90;99.90
25436;DHT22;13363;52.772;-3.890;2022-08-04T05:25:34;14.80;99.90
25436;DHT22;13363;52.772;-3.890;2022-08-04T05:28:05;14.80;99.90
25436;DHT22;13363;52.772;-3.890;2022-08-04T05:30:37;14.80;99.90
25436;DHT22;13363;52.772;-3.890;2022-08-04T05:34:00;14.80;99.90
25436;DHT22;13363;52.772;-3.890;2022-08-04T05:36:02;14.90;99.90
25436;DHT22;13363;52.772;-3.890;2022-08-04T05:38:34;14.90;99.90
25436;DHT22;13363;52.772;-3.890;2022-08-04T05:41:01;14.90;99.90
25436;DHT22;13363;52.772;-3.890;2022-08-04T05:43:27;15.00;99.90
25436;DHT22;13363;52.772;-3.890;2022-08-04T05:45:54;15.00;99.90
25436;DHT22;13363;52.772;-3.890;2022-08-04T05:48:23;14.90;99.90
25436;DHT22;13363;52.772;-3.890;2022-08-04T05:50:49;14.90;99.90
25436;DHT22;13363;52.772;-3.890;2022-08-04T05:53:17;14.90;99.90
25436;DHT22;13363;52.772;-3.890;2022-08-04T05:55:44;14.90;99.90
25436;DHT22;13363;52.772;-3.890;2022-08-04T05:58:11;14.90;99.90
25436;DHT22;13363;52.772;-3.890;2022-08-04T06:00:38;15.00;99.90
25436;DHT22;13363;52.772;-3.890;2022-08-04T06:03:07;15.00;99.90
25436;DHT22;13363;52.772;-3.890;2022-08-04T06:05:34;15.10;99.90
25436;DHT22;13363;52.772;-3.890;2022-08-04T06:08:01;15.10;99.90
25436;DHT22;13363;52.772;-3.890;2022-08-04T06:10:28;15.20;99.90
25436;DHT22;13363;52.772;-3.890;2022-08-04T06:12:58;15.50;99.90
25436;DHT22;13363;52.772;-3.890;2022-08-04T06:15:26;16.60;99.90
25436;DHT22;13363;52.772;-3.890;2022-08-04T06:17:58;17.60;99.90
25436;DHT22;13363;52.772;-3.890;2022-08-04T06:20:29;17.80;99.90
25436;DHT22;13363;52.772;-3.890;2022-08-04T06:23:02;18.50;99.90
25436;DHT22;13363;52.772;-3.890;2022-08-04T06:25:32;18.40;99.90
25436;DHT22;13363;52.772;-3.890;2022-08-04T06:28:00;18.40;99.90
25436;DHT22;13363;52.772;-3.890;2022-08-04T06:30:30;18.20;99.90
25436;DHT22;13363;52.772;-3.890;2022-08-04T06:32:58;17.70;99.90
25436;DHT22;13363;52.772;-3.890;2022-08-04T06:35:38;17.20;99.90
25436;DHT22;13363;52.772;-3.890;2022-08-04T06:38:05;17.10;99.90
25436;DHT22;13363;52.772;-3.890;2022-08-04T06:40:33;17.40;99.90
25436;DHT22;13363;52.772;-3.890;2022-08-04T06:43:05;17.60;99.90
25436;DHT22;13363;52.772;-3.890;2022-08-04T06:45:34;17.90;99.90
25436;DHT22;13363;52.772;-3.890;2022-08-04T06:48:03;18.30;99.90
25436;DHT22;13363;52.772;-3.890;2022-08-04T06:50:31;18.90;99.90
25436;DHT22;13363;52.772;-3.890;2022-08-04T06:52:58;19.00;99.90
25436;DHT22;13363;52.772;-3.890;2022-08-04T06:55:24;19.20;99.90
25436;DHT22;13363;52.772;-3.890;2022-08-04T06:57:51;19.70;99.90
25436;DHT22;13363;52.772;-3.890;2022-08-04T07:00:18;19.30;99.90
25436;DHT22;13363;52.772;-3.890;2022-08-04T07:02:48;19.10;99.90
25436;DHT22;13363;52.772;-3.890;2022-08-04T07:05:15;18.80;99.90
25436;DHT22;13363;52.772;-3.890;2022-08-04T07:07:43;18.70;99.90
25436;DHT22;13363;52.772;-3.890;2022-08-04T07:10:09;18.70;99.90
25436;DHT22;13363;52.772;-3.890;2022-08-04T07:12:37;18.60;99.90
25436;DHT22;13363;52.772;-3.890;2022-08-04T07:15:05;18.90;99.90
25436;DHT22;13363;52.772;-3.890;2022-08-04T07:17:35;19.60;99.90
25436;DHT22;13363;52.772;-3.890;2022-08-04T07:20:03;20.00;99.90
25436;DHT22;13363;52.772;-3.890;2022-08-04T07:22:30;20.00;99.90
25436;DHT22;13363;52.772;-3.890;2022-08-04T07:24:57;20.90;99.90
25436;DHT22;13363;52.772;-3.890;2022-08-04T07:27:25;22.40;99.90
25436;DHT22;13363;52.772;-3.890;2022-08-04T07:29:51;22.60;99.90
25436;DHT22;13363;52.772;-3.890;2022-08-04T07:32:20;23.20;99.90
25436;DHT22;13363;52.772;-3.890;2022-08-04T07:34:48;22.60;99.90
25436;DHT22;13363;52.772;-3.890;2022-08-04T07:37:14;20.70;99.90
25436;DHT22;13363;52.772;-3.890;2022-08-04T07:39:41;19.40;99.90
25436;DHT22;13363;52.772;-3.890;2022-08-04T07:42:07;19.00;99.90
25436;DHT22;13363;52.772;-3.890;2022-08-04T07:44:34;18.40;99.90
25436;DHT22;13363;52.772;-3.890;2022-08-04T07:47:01;17.80;99.90
25436;DHT22;13363;52.772;-3.890;2022-08-04T07:49:28;18.00;99.90
25436;DHT22;13363;52.772;-3.890;2022-08-04T07:51:54;19.40;99.90
25436;DHT22;13363;52.772;-3.890;2022-08-04T07:54:20;21.30;99.90
25436;DHT22;13363;52.772;-3.890;2022-08-04T07:56:47;22.70;99.90
25436;DHT22;13363;52.772;-3.890;2022-08-04T07:59:17;22.70;99.90
25436;DHT22;13363;52.772;-3.890;2022-08-04T08:01:45;23.10;99.90
25436;DHT22;13363;52.772;-3.890;2022-08-04T08:06:38;22.80;99.90
25436;DHT22;13363;52.772;-3.890;2022-08-04T08:09:15;21.40;99.90
25436;DHT22;13363;52.772;-3.890;2022-08-04T08:11:43;19.60;99.90
25436;DHT22;13363;52.772;-3.890;2022-08-04T08:14:09;18.90;99.90
25436;DHT22;13363;52.772;-3.890;2022-08-04T08:16:36;19.20;99.90
25436;DHT22;13363;52.772;-3.890;2022-08-04T08:19:04;19.90;99.90
25436;DHT22;13363;52.772;-3.890;2022-08-04T08:21:30;19.80;99.90
25436;DHT22;13363;52.772;-3.890;2022-08-04T08:23:56;20.20;99.90
25436;DHT22;13363;52.772;-3.890;2022-08-04T08:26:23;20.00;99.90
25436;DHT22;13363;52.772;-3.890;2022-08-04T08:28:49;19.50;99.90
25436;DHT22;13363;52.772;-3.890;2022-08-04T08:31:15;19.30;99.90
25436;DHT22;13363;52.772;-3.890;2022-08-04T08:33:41;19.00;99.90
25436;DHT22;13363;52.772;-3.890;2022-08-04T08:41:30;20.30;99.90
25436;DHT22;13363;52.772;-3.890;2022-08-04T08:58:05;19.40;99.90
25436;DHT22;13363;52.772;-3.890;2022-08-04T09:11:57;19.60;99.90
25436;DHT22;13363;52.772;-3.890;2022-08-04T09:14:50;19.80;99.90
25436;DHT22;13363;52.772;-3.890;2022-08-04T09:22:43;18.20;99.90
25436;DHT22;13363;52.772;-3.890;2022-08-04T09:25:25;18.00;99.90
25436;DHT22;13363;52.772;-3.890;2022-08-04T09:28:04;18.10;99.90
25436;DHT22;13363;52.772;-3.890;2022-08-04T09:30:41;18.20;99.90
25436;DHT22;13363;52.772;-3.890;2022-08-04T09:35:56;18.50;99.90
25436;DHT22;13363;52.772;-3.890;2022-08-04T09:50:37;19.10;99.90
25436;DHT22;13363;52.772;-3.890;2022-08-04T09:53:29;18.70;99.90
25436;DHT22;13363;52.772;-3.890;2022-08-04T09:58:38;18.80;99.90
25436;DHT22;13363;52.772;-3.890;2022-08-04T10:01:08;19.10;99.90
25436;DHT22;13363;52.772;-3.890;2022-08-04T10:03:40;19.10;99.90
25436;DHT22;13363;52.772;-3.890;2022-08-04T10:09:32;18.90;99.90
25436;DHT22;13363;52.772;-3.890;2022-08-04T10:20:22;19.30;99.90
25436;DHT22;13363;52.772;-3.890;2022-08-04T10:26:19;18.90;99.90
25436;DHT22;13363;52.772;-3.890;2022-08-04T10:31:34;18.10;99.90
25436;DHT22;13363;52.772;-3.890;2022-08-04T10:34:16;18.30;99.90
25436;DHT22;13363;52.772;-3.890;2022-08-04T10:37:05;18.40;99.90
25436;DHT22;13363;52.772;-3.890;2022-08-04T10:40:01;19.00;99.90
25436;DHT22;13363;52.772;-3.890;2022-08-04T10:43:01;19.80;99.90
25436;DHT22;13363;52.772;-3.890;2022-08-04T10:48:22;21.30;99.90
25436;DHT22;13363;52.772;-3.890;2022-08-04T10:53:41;20.50;99.90
25436;DHT22;13363;52.772;-3.890;2022-08-04T10:56:22;20.90;99.90
25436;DHT22;13363;52.772;-3.890;2022-08-04T10:58:54;20.60;99.90
25436;DHT22;13363;52.772;-3.890;2022-08-04T11:01:38;20.80;99.90
25436;DHT22;13363;52.772;-3.890;2022-08-04T11:06:48;21.40;99.90
25436;DHT22;13363;52.772;-3.890;2022-08-04T11:09:17;21.80;99.90
25436;DHT22;13363;52.772;-3.890;2022-08-04T11:11:52;21.80;99.90
25436;DHT22;13363;52.772;-3.890;2022-08-04T11:14:28;21.70;99.90
25436;DHT22;13363;52.772;-3.890;2022-08-04T11:19:41;21.50;99.90
25436;DHT22;13363;52.772;-3.890;2022-08-04T11:22:23;21.50;99.90
25436;DHT22;13363;52.772;-3.890;2022-08-04T11:33:35;21.60;99.90
25436;DHT22;13363;52.772;-3.890;2022-08-04T11:39:26;22.10;99.90
25436;DHT22;13363;52.772;-3.890;2022-08-04T11:42:04;21.60;99.90
25436;DHT22;13363;52.772;-3.890;2022-08-04T11:44:40;21.60;99.90
25436;DHT22;13363;52.772;-3.890;2022-08-04T11:50:17;21.50;99.90
25436;DHT22;13363;52.772;-3.890;2022-08-04T11:52:45;21.70;99.90
25436;DHT22;13363;52.772;-3.890;2022-08-04T11:55:16;20.50;99.90
25436;DHT22;13363;52.772;-3.890;2022-08-04T11:57:47;20.20;99.90
25436;DHT22;13363;52.772;-3.890;2022-08-04T12:00:15;20.40;99.90
25436;DHT22;13363;52.772;-3.890;2022-08-04T12:05:26;21.00;99.90
25436;DHT22;13363;52.772;-3.890;2022-08-04T12:11:03;21.70;99.90
25436;DHT22;13363;52.772;-3.890;2022-08-04T12:16:27;21.30;99.90
25436;DHT22;13363;52.772;-3.890;2022-08-04T12:19:02;21.20;99.90
25436;DHT22;13363;52.772;-3.890;2022-08-04T12:22:12;21.40;99.90
25436;DHT22;13363;52.772;-3.890;2022-08-04T12:24:42;21.80;99.90
25436;DHT22;13363;52.772;-3.890;2022-08-04T12:27:19;21.50;99.90
25436;DHT22;13363;52.772;-3.890;2022-08-04T12:29:46;21.50;99.90
25436;DHT22;13363;52.772;-3.890;2022-08-04T12:32:21;21.30;99.90
25436;DHT22;13363;52.772;-3.890;2022-08-04T12:35:11;21.20;99.90
25436;DHT22;13363;52.772;-3.890;2022-08-04T12:37:59;21.60;99.90
25436;DHT22;13363;52.772;-3.890;2022-08-04T12:40:54;21.20;99.90
25436;DHT22;13363;52.772;-3.890;2022-08-04T12:43:43;21.50;99.90
25436;DHT22;13363;52.772;-3.890;2022-08-04T12:46:26;21.50;99.90
25436;DHT22;13363;52.772;-3.890;2022-08-04T12:49:00;21.90;99.90
25436;DHT22;13363;52.772;-3.890;2022-08-04T12:51:28;21.60;99.90
25436;DHT22;13363;52.772;-3.890;2022-08-04T12:54:01;22.10;99.90
25436;DHT22;13363;52.772;-3.890;2022-08-04T12:56:28;22.80;99.90
25436;DHT22;13363;52.772;-3.890;2022-08-04T12:59:01;22.90;99.90
25436;DHT22;13363;52.772;-3.890;2022-08-04T13:01:28;22.90;99.90
25436;DHT22;13363;52.772;-3.890;2022-08-04T13:04:40;22.50;99.90
25436;DHT22;13363;52.772;-3.890;2022-08-04T13:07:08;22.50;99.90
25436;DHT22;13363;52.772;-3.890;2022-08-04T13:09:36;22.90;99.90
25436;DHT22;13363;52.772;-3.890;2022-08-04T13:12:11;23.00;99.90
25436;DHT22;13363;52.772;-3.890;2022-08-04T13:14:40;22.70;99.90
25436;DHT22;13363;52.772;-3.890;2022-08-04T13:17:12;22.60;99.90
25436;DHT22;13363;52.772;-3.890;2022-08-04T13:19:38;22.60;99.90
25436;DHT22;13363;52.772;-3.890;2022-08-04T13:22:04;22.60;99.90
25436;DHT22;13363;52.772;-3.890;2022-08-04T13:24:33;22.40;99.90
25436;DHT22;13363;52.772;-3.890;2022-08-04T13:27:05;22.10;99.90
25436;DHT22;13363;52.772;-3.890;2022-08-04T13:29:44;22.30;99.90
25436;DHT22;13363;52.772;-3.890;2022-08-04T13:32:20;22.50;99.90
25436;DHT22;13363;52.772;-3.890;2022-08-04T13:34:49;22.00;99.90
25436;DHT22;13363;52.772;-3.890;2022-08-04T13:37:18;22.20;99.90
25436;DHT22;13363;52.772;-3.890;2022-08-04T13:39:48;22.20;99.90
25436;DHT22;13363;52.772;-3.890;2022-08-04T13:42:15;22.50;99.90
25436;DHT22;13363;52.772;-3.890;2022-08-04T13:44:56;22.30;99.90
25436;DHT22;13363;52.772;-3.890;2022-08-04T13:47:27;22.20;99.90
25436;DHT22;13363;52.772;-3.890;2022-08-04T13:52:35;21.50;99.90
25436;DHT22;13363;52.772;-3.890;2022-08-04T13:55:01;21.70;99.90
25436;DHT22;13363;52.772;-3.890;2022-08-04T13:57:31;21.40;99.90
25436;DHT22;13363;52.772;-3.890;2022-08-04T14:00:04;21.60;99.90
25436;DHT22;13363;52.772;-3.890;2022-08-04T14:05:03;21.40;99.90
25436;DHT22;13363;52.772;-3.890;2022-08-04T14:07:30;21.90;99.90
25436;DHT22;13363;52.772;-3.890;2022-08-04T14:09:57;22.10;99.90
25436;DHT22;13363;52.772;-3.890;2022-08-04T14:12:23;22.00;99.90
25436;DHT22;13363;52.772;-3.890;2022-08-04T14:14:51;22.10;99.90
25436;DHT22;13363;52.772;-3.890;2022-08-04T14:17:24;21.70;99.90
25436;DHT22;13363;52.772;-3.890;2022-08-04T14:20:00;21.20;99.90
25436;DHT22;13363;52.772;-3.890;2022-08-04T14:22:29;21.20;99.90
25436;DHT22;13363;52.772;-3.890;2022-08-04T14:25:05;21.40;99.90
25436;DHT22;13363;52.772;-3.890;2022-08-04T14:27:54;21.10;99.90
25436;DHT22;13363;52.772;-3.890;2022-08-04T14:30:30;21.30;99.90
25436;DHT22;13363;52.772;-3.890;2022-08-04T14:33:07;21.30;99.90
25436;DHT22;13363;52.772;-3.890;2022-08-04T14:35:34;21.30;99.90
25436;DHT22;13363;52.772;-3.890;2022-08-04T14:38:05;21.10;99.90
25436;DHT22;13363;52.772;-3.890;2022-08-04T14:40:33;21.40;99.90
25436;DHT22;13363;52.772;-3.890;2022-08-04T14:43:00;21.60;99.90
25436;DHT22;13363;52.772;-3.890;2022-08-04T14:48:11;21.40;99.90
25436;DHT22;13363;52.772;-3.890;2022-08-04T14:50:45;21.10;99.90
25436;DHT22;13363;52.772;-3.890;2022-08-04T14:53:20;21.20;99.90
25436;DHT22;13363;52.772;-3.890;2022-08-04T14:55:51;21.00;99.90
25436;DHT22;13363;52.772;-3.890;2022-08-04T14:58:29;21.20;99.90
25436;DHT22;13363;52.772;-3.890;2022-08-04T15:00:59;21.40;99.90
25436;DHT22;13363;52.772;-3.890;2022-08-04T15:03:26;21.20;99.90
25436;DHT22;13363;52.772;-3.890;2022-08-04T15:05:55;21.00;99.90
25436;DHT22;13363;52.772;-3.890;2022-08-04T15:08:22;21.00;99.90
25436;DHT22;13363;52.772;-3.890;2022-08-04T15:10:48;21.00;99.90
25436;DHT22;13363;52.772;-3.890;2022-08-04T15:13:13;20.70;99.90
25436;DHT22;13363;52.772;-3.890;2022-08-04T15:15:41;20.70;99.90
25436;DHT22;13363;52.772;-3.890;2022-08-04T15:18:08;20.20;99.90
25436;DHT22;13363;52.772;-3.890;2022-08-04T15:20:34;20.40;99.90
25436;DHT22;13363;52.772;-3.890;2022-08-04T15:23:01;20.70;99.90
25436;DHT22;13363;52.772;-3.890;2022-08-04T15:25:35;20.90;99.90
25436;DHT22;13363;52.772;-3.890;2022-08-04T15:28:03;21.00;99.90
25436;DHT22;13363;52.772;-3.890;2022-08-04T15:30:30;20.90;99.90
25436;DHT22;13363;52.772;-3.890;2022-08-04T15:33:00;20.90;99.90
25436;DHT22;13363;52.772;-3.890;2022-08-04T15:35:27;20.80;99.90
25436;DHT22;13363;52.772;-3.890;2022-08-04T15:40:47;20.90;99.90
25436;DHT22;13363;52.772;-3.890;2022-08-04T15:46:03;20.70;99.90
25436;DHT22;13363;52.772;-3.890;2022-08-04T15:48:33;20.80;99.90
25436;DHT22;13363;52.772;-3.890;2022-08-04T15:51:02;20.80;99.90
25436;DHT22;13363;52.772;-3.890;2022-08-04T15:58:52;21.20;99.90
25436;DHT22;13363;52.772;-3.890;2022-08-04T16:01:21;20.90;99.90
25436;DHT22;13363;52.772;-3.890;2022-08-04T16:03:50;20.40;99.90
25436;DHT22;13363;52.772;-3.890;2022-08-04T16:21:50;20.60;99.90
25436;DHT22;13363;52.772;-3.890;2022-08-04T16:26:48;20.30;99.90
25436;DHT22;13363;52.772;-3.890;2022-08-04T16:29:27;20.30;99.90
25436;DHT22;13363;52.772;-3.890;2022-08-04T16:32:09;19.70;99.90
25436;DHT22;13363;52.772;-3.890;2022-08-04T16:37:35;19.70;99.90
25436;DHT22;13363;52.772;-3.890;2022-08-04T16:43:08;20.00;99.90
25436;DHT22;13363;52.772;-3.890;2022-08-04T16:45:56;20.10;99.90
25436;DHT22;13363;52.772;-3.890;2022-08-04T16:48:35;20.20;99.90
25436;DHT22;13363;52.772;-3.890;2022-08-04T16:51:06;20.50;99.90
25436;DHT22;13363;52.772;-3.890;2022-08-04T16:53:45;20.70;99.90
25436;DHT22;13363;52.772;-3.890;2022-08-04T16:56:14;20.80;99.90
25436;DHT22;13363;52.772;-3.890;2022-08-04T16:58:43;20.80;99.90
25436;DHT22;13363;52.772;-3.890;2022-08-04T17:01:13;20.70;99.90
25436;DHT22;13363;52.772;-3.890;2022-08-04T17:03:49;20.50;99.90
25436;DHT22;13363;52.772;-3.890;2022-08-04T17:06:15;20.30;99.90
25436;DHT22;13363;52.772;-3.890;2022-08-04T17:08:43;20.20;99.90
25436;DHT22;13363;52.772;-3.890;2022-08-04T17:11:10;20.20;99.90
25436;DHT22;13363;52.772;-3.890;2022-08-04T17:13:43;20.20;99.90
25436;DHT22;13363;52.772;-3.890;2022-08-04T17:16:13;20.00;99.90
25436;DHT22;13363;52.772;-3.890;2022-08-04T17:18:48;19.90;99.90
25436;DHT22;13363;52.772;-3.890;2022-08-04T17:21:23;19.70;99.90
25436;DHT22;13363;52.772;-3.890;2022-08-04T17:23:54;19.50;99.90
25436;DHT22;13363;52.772;-3.890;2022-08-04T17:26:24;19.50;99.90
25436;DHT22;13363;52.772;-3.890;2022-08-04T17:28:53;19.30;99.90
25436;DHT22;13363;52.772;-3.890;2022-08-04T17:31:20;19.20;99.90
25436;DHT22;13363;52.772;-3.890;2022-08-04T17:33:53;19.10;99.90
25436;DHT22;13363;52.772;-3.890;2022-08-04T17:36:28;18.90;99.90
25436;DHT22;13363;52.772;-3.890;2022-08-04T17:38:58;18.90;99.90
25436;DHT22;13363;52.772;-3.890;2022-08-04T17:41:29;19.00;99.90
25436;DHT22;13363;52.772;-3.890;2022-08-04T17:43:59;19.00;99.90
25436;DHT22;13363;52.772;-3.890;2022-08-04T17:49:19;18.90;99.90
25436;DHT22;13363;52.772;-3.890;2022-08-04T17:51:58;18.90;99.90
25436;DHT22;13363;52.772;-3.890;2022-08-04T17:54:30;18.90;99.90
25436;DHT22;13363;52.772;-3.890;2022-08-04T17:56:59;18.90;99.90
25436;DHT22;13363;52.772;-3.890;2022-08-04T17:59:27;18.90;99.90
25436;DHT22;13363;52.772;-3.890;2022-08-04T18:01:59;18.80;99.90
25436;DHT22;13363;52.772;-3.890;2022-08-04T18:07:19;18.60;99.90
25436;DHT22;13363;52.772;-3.890;2022-08-04T18:09:53;18.60;99.90
25436;DHT22;13363;52.772;-3.890;2022-08-04T18:12:34;18.50;99.90
25436;DHT22;13363;52.772;-3.890;2022-08-04T18:15:05;18.50;99.90
25436;DHT22;13363;52.772;-3.890;2022-08-04T18:17:42;18.50;99.90
25436;DHT22;13363;52.772;-3.890;2022-08-04T18:20:14;18.40;99.90
25436;DHT22;13363;52.772;-3.890;2022-08-04T18:22:43;18.40;99.90
25436;DHT22;13363;52.772;-3.890;2022-08-04T18:25:11;18.30;99.90
25436;DHT22;13363;52.772;-3.890;2022-08-04T18:27:51;18.20;99.90
25436;DHT22;13363;52.772;-3.890;2022-08-04T18:30:22;18.20;99.90
25436;DHT22;13363;52.772;-3.890;2022-08-04T18:32:48;18.10;99.90
25436;DHT22;13363;52.772;-3.890;2022-08-04T18:35:14;18.00;99.90
25436;DHT22;13363;52.772;-3.890;2022-08-04T18:37:41;18.00;99.90
25436;DHT22;13363;52.772;-3.890;2022-08-04T18:40:08;17.90;99.90
25436;DHT22;13363;52.772;-3.890;2022-08-04T18:42:35;17.80;99.90
25436;DHT22;13363;52.772;-3.890;2022-08-04T18:45:02;17.80;99.90
25436;DHT22;13363;52.772;-3.890;2022-08-04T18:47:28;17.70;99.90
25436;DHT22;13363;52.772;-3.890;2022-08-04T18:49:54;17.60;99.90
25436;DHT22;13363;52.772;-3.890;2022-08-04T18:52:24;17.50;99.90
25436;DHT22;13363;52.772;-3.890;2022-08-04T18:54:55;17.40;99.90
25436;DHT22;13363;52.772;-3.890;2022-08-04T18:57:24;17.40;99.90
25436;DHT22;13363;52.772;-3.890;2022-08-04T18:59:50;17.30;99.90
25436;DHT22;13363;52.772;-3.890;2022-08-04T19:02:16;17.20;99.90
25436;DHT22;13363;52.772;-3.890;2022-08-04T19:04:43;17.20;99.90
25436;DHT22;13363;52.772;-3.890;2022-08-04T19:07:09;17.10;99.90
25436;DHT22;13363;52.772;-3.890;2022-08-04T19:09:42;17.10;99.90
25436;DHT22;13363;52.772;-3.890;2022-08-04T19:12:09;17.00;99.90
25436;DHT22;13363;52.772;-3.890;2022-08-04T19:14:35;17.00;99.90
25436;DHT22;13363;52.772;-3.890;2022-08-04T19:17:01;16.90;99.90
25436;DHT22;13363;52.772;-3.890;2022-08-04T19:19:27;16.90;99.90
25436;DHT22;13363;52.772;-3.890;2022-08-04T19:21:53;16.80;99.90
25436;DHT22;13363;52.772;-3.890;2022-08-04T19:24:19;16.80;99.90
25436;DHT22;13363;52.772;-3.890;2022-08-04T19:26:45;16.70;99.90
25436;DHT22;13363;52.772;-3.890;2022-08-04T19:29:11;16.70;99.90
25436;DHT22;13363;52.772;-3.890;2022-08-04T19:31:39;16.60;99.90
25436;DHT22;13363;52.772;-3.890;2022-08-04T19:34:05;16.50;99.90
25436;DHT22;13363;52.772;-3.890;2022-08-04T19:36:32;16.50;99.90
25436;DHT22;13363;52.772;-3.890;2022-08-04T19:38:59;16.40;99.90
25436;DHT22;13363;52.772;-3.890;2022-08-04T19:41:50;16.40;99.90
25436;DHT22;13363;52.772;-3.890;2022-08-04T19:44:16;16.30;99.90
25436;DHT22;13363;52.772;-3.890;2022-08-04T19:46:42;16.20;99.90
25436;DHT22;13363;52.772;-3.890;2022-08-04T19:49:12;16.20;99.90
25436;DHT22;13363;52.772;-3.890;2022-08-04T19:51:38;16.10;99.90
25436;DHT22;13363;52.772;-3.890;2022-08-04T19:54:04;16.00;99.90
25436;DHT22;13363;52.772;-3.890;2022-08-04T19:56:30;16.00;99.90
25436;DHT22;13363;52.772;-3.890;2022-08-04T19:58:56;15.90;99.90
25436;DHT22;13363;52.772;-3.890;2022-08-04T20:01:23;15.80;99.90
25436;DHT22;13363;52.772;-3.890;2022-08-04T20:03:49;15.70;99.90
25436;DHT22;13363;52.772;-3.890;2022-08-04T20:06:15;15.70;99.90
25436;DHT22;13363;52.772;-3.890;2022-08-04T20:08:41;15.60;99.90
25436;DHT22;13363;52.772;-3.890;2022-08-04T20:11:07;15.50;99.90
25436;DHT22;13363;52.772;-3.890;2022-08-04T20:13:33;15.50;99.90
25436;DHT22;13363;52.772;-3.890;2022-08-04T20:15:59;15.40;99.90
25436;DHT22;13363;52.772;-3.890;2022-08-04T20:18:27;15.30;99.90
25436;DHT22;13363;52.772;-3.890;2022-08-04T20:20:53;15.20;99.90
25436;DHT22;13363;52.772;-3.890;2022-08-04T20:23:19;15.20;99.90
25436;DHT22;13363;52.772;-3.890;2022-08-04T20:25:46;15.20;99.90
25436;DHT22;13363;52.772;-3.890;2022-08-04T20:28:12;15.20;99.90
25436;DHT22;13363;52.772;-3.890;2022-08-04T20:30:38;15.20;99.90